Terminal Aerodrome Forecast
Issued by NWS Wilmington, NC

Home | Current Version | Previous Version | Text Only | Print | Product List | Glossary On
Versions: 1 2 3 4 5 6 7 8 9 10 11 12 13 14 15 16 17 18 19 20 21 22 23 24 25 26 27
000
FTUS42 KILM 050500
TAFLBT
TAF
KLBT 050531Z 0506/0606 20010G17KT P6SM SCT060 WS010/22035KT
     FM051200 20008KT P6SM BKN012 WS010/22030KT
     FM051500 25010G21KT P6SM SCT007 BKN015 OVC070
     FM051900 34013G23KT 4SM -SHRA OVC005=

USA.gov is the U.S. government's official web portal to all federal, state and local government web resources and services.